Sacramento, California
Traffic Map
Current Weather Conditions
Sacramento, California
Clear
Clear
18°
Feels Like: 18°
Wind Chill: 18° Ceiling: Unl
Heat Index: 18° Visibility: 10mi
Dew Point: 14° Wind: 6mph
Humidity: 78% Direction: 170° (S)
Pressure: 29.79in Gusts: 0mph
Raw Report DataKSAC 171453Z AUTO 17005KT 10SM CLR 18/14 A2979 RMK AO2 SLP087 T01780139 53007 TSNO
Traffic Incident Summary
Active as of:
Severity:
Category:
InformationThere was an issue retrieving the traffic information for this location. Please try a different location or try again shortly.
Advertisements
Track Severe Weather on mobile